Mariana, Brazil
Current Conditions -  °F | °C
As of 8:00 PM on Saturday 25 Oct 2014 (Local Time) from SBMO Reporting Station
Few Clouds Few Clouds  
Wind Chill: 70°   Ceiling: Unl
Heat Index: 70°   Visibility: 6mi
Dew Point: 68°   Wind: 6mph
Humidity: 94%   Direction: 80°E
Pressure: 29.97"   Gusts: NA
Location:  8.98°S, 37.62°W
Report Text: SBMO 252300Z 08005KT 9999 FEW020 21/20 Q1015
Loading
Personal Weather Stations






























Interactive Weather Map
Tropical Storm Tracking
New forecast layout! Learn more

10-Day Weather Forecast

Advertisements
Track Severe Weather on mobile